createdAt,value
2017-09-08T00:01:02.735Z,"    0"
2017-09-08T00:05:58.480Z,"    0"
2017-09-08T00:10:54.383Z,"    0"
2017-09-08T00:15:52.335Z,"    0"
2017-09-08T00:20:47.900Z,"    0"
2017-09-08T00:25:43.770Z,"    0"
2017-09-08T00:30:39.708Z,"    0"
2017-09-08T00:35:35.428Z,"    0"
2017-09-08T00:40:31.723Z,"    0"
2017-09-08T00:45:27.658Z,"    0"
2017-09-08T00:50:23.551Z,"    0"
2017-09-08T00:55:20.385Z,"    0"
2017-09-08T01:00:15.989Z,"    0"
2017-09-08T01:05:11.482Z,"    0"
2017-09-08T01:10:08.758Z,"    0"
2017-09-08T01:15:04.829Z,"    0"
2017-09-08T01:20:00.397Z,"    0"
2017-09-08T01:24:56.080Z,"    0"
2017-09-08T01:29:53.127Z,"    0"
2017-09-08T01:34:48.377Z,"    0"
2017-09-08T01:39:43.807Z,"    0"
2017-09-08T01:44:39.854Z,"    0"
2017-09-08T01:49:35.845Z,"    0"
2017-09-08T01:54:32.965Z,"    0"
2017-09-08T01:59:29.470Z,"    0"
2017-09-08T02:04:24.979Z,"    0"
2017-09-08T02:09:21.828Z,"    0"
2017-09-08T02:14:17.288Z,"    0"
2017-09-08T02:19:13.246Z,"    0"
2017-09-08T02:24:09.029Z,"    0"
2017-09-08T02:29:04.954Z,"    0"
2017-09-08T02:34:01.424Z,"    0"
2017-09-08T02:38:56.926Z,"    0"
2017-09-08T02:43:52.812Z,"    0"
2017-09-08T02:48:48.680Z,"    0"
2017-09-08T02:53:45.533Z,"    0"
2017-09-08T02:58:41.721Z,"    0"
2017-09-08T03:03:37.490Z,"    0"
2017-09-08T03:08:34.156Z,"    0"
2017-09-08T03:13:29.767Z,"    0"
2017-09-08T03:18:26.732Z,"    0"
2017-09-08T03:23:22.273Z,"    0"
2017-09-08T03:28:18.439Z,"    0"
2017-09-08T03:33:14.509Z,"    0"
2017-09-08T03:38:10.546Z,"    0"
2017-09-08T03:43:07.452Z,"    0"
2017-09-08T03:48:03.028Z,"    0"
2017-09-08T03:52:58.857Z,"    0"
2017-09-08T03:57:55.008Z,"    0"
2017-09-08T04:02:50.705Z,"    0"
2017-09-08T04:07:46.791Z,"    0"
2017-09-08T04:12:42.841Z,"    0"
2017-09-08T04:17:38.780Z,"    0"
2017-09-08T04:22:35.801Z,"    0"
2017-09-08T04:27:31.643Z,"    0"
2017-09-08T04:32:27.407Z,"    0"
2017-09-08T04:37:24.446Z,"    0"
2017-09-08T04:42:20.994Z,"    0"
2017-09-08T04:47:17.154Z,"    0"
2017-09-08T04:52:12.864Z,"    0"
2017-09-08T04:57:08.813Z,"    0"
2017-09-08T05:02:04.440Z,"    0"
2017-09-08T05:07:00.408Z,"    0"
2017-09-08T05:11:57.270Z,"    5"
2017-09-08T05:16:52.411Z,"    5"
2017-09-08T05:21:49.163Z,"    5"
2017-09-08T05:26:45.681Z,"   10"
2017-09-08T05:31:41.333Z,"   10"
2017-09-08T05:36:37.232Z,"   10"
2017-09-08T05:41:33.016Z,"   10"
2017-09-08T05:46:29.814Z,"   10"
2017-09-08T05:51:25.459Z,"   10"
2017-09-08T05:56:23.392Z,"   15"
2017-09-08T06:01:18.931Z,"   20"
2017-09-08T06:06:16.000Z,"   20"
2017-09-08T06:11:12.606Z,"   25"
2017-09-08T06:16:08.198Z,"   30"
2017-09-08T06:21:04.717Z,"   40"
2017-09-08T06:26:00.736Z,"   80"
2017-09-08T06:30:57.759Z,"   95"
2017-09-08T06:35:53.722Z,"   80"
2017-09-08T06:40:49.896Z,"   60"
2017-09-08T06:45:45.651Z,"   65"
2017-09-08T06:50:43.264Z,"   40"
2017-09-08T06:55:38.937Z,"   65"
2017-09-08T07:00:34.868Z,"   55"
2017-09-08T07:05:30.622Z,"  100"
2017-09-08T07:10:27.651Z,"   70"
2017-09-08T07:15:23.094Z,"   55"
2017-09-08T07:20:18.988Z,"   70"
2017-09-08T07:25:16.221Z,"  115"
2017-09-08T07:30:11.767Z,"   70"
2017-09-08T07:35:07.885Z,"   90"
2017-09-08T07:40:04.066Z,"   95"
2017-09-08T07:45:00.938Z,"  120"
2017-09-08T07:49:57.822Z,"  100"
2017-09-08T07:54:53.440Z,"  105"
2017-09-08T07:59:49.854Z,"   90"
2017-09-08T08:04:46.051Z,"  105"
2017-09-08T08:09:42.809Z,"   90"
2017-09-08T08:14:39.167Z,"  120"
2017-09-08T08:19:35.139Z,"  125"
2017-09-08T08:24:31.557Z,"   65"
2017-09-08T08:29:27.553Z,"  100"
2017-09-08T08:34:23.242Z,"  115"
2017-09-08T08:39:19.343Z,"  160"
2017-09-08T08:44:15.413Z,"  125"
2017-09-08T08:49:12.628Z,"  210"
2017-09-08T08:54:08.619Z,"  135"
2017-09-08T08:59:04.471Z,"  125"
2017-09-08T09:04:00.743Z,"  125"
2017-09-08T09:08:56.444Z,"  125"
2017-09-08T09:13:52.886Z,"  145"
2017-09-08T09:18:49.920Z,"  160"
2017-09-08T09:23:45.555Z,"  165"
2017-09-08T09:28:41.482Z,"  145"
2017-09-08T09:33:36.944Z,"  170"
2017-09-08T09:38:32.518Z,"  170"
2017-09-08T09:43:27.970Z,"  135"
2017-09-08T09:48:24.778Z,"  150"
2017-09-08T09:53:20.076Z,"  185"
2017-09-08T09:58:15.975Z,"  175"
2017-09-08T10:03:11.529Z,"  140"
2017-09-08T10:08:07.264Z,"  120"
2017-09-08T10:13:03.997Z,"   75"
2017-09-08T10:17:58.957Z,"  105"
2017-09-08T10:22:56.090Z,"  140"
2017-09-08T10:27:51.769Z,"  135"
2017-09-08T10:32:48.023Z,"  155"
2017-09-08T10:37:44.525Z,"  170"
2017-09-08T10:42:42.400Z,"  130"
2017-09-08T10:47:38.695Z,"   75"
2017-09-08T10:52:34.302Z,"  140"
2017-09-08T10:57:30.209Z,"  110"
2017-09-08T11:02:26.682Z,"  160"
2017-09-08T11:07:22.690Z,"  100"
2017-09-08T11:12:18.639Z,"  195"
2017-09-08T11:17:14.786Z,"  155"
2017-09-08T11:22:11.909Z,"  150"
2017-09-08T11:27:08.513Z,"  135"
2017-09-08T11:32:04.027Z,"   95"
2017-09-08T11:37:00.044Z,"   75"
2017-09-08T11:41:55.851Z,"   85"
2017-09-08T11:46:52.560Z,"  105"
2017-09-08T11:51:47.653Z,"   85"
2017-09-08T11:56:43.899Z,"   85"
2017-09-08T12:01:39.762Z,"   50"
2017-09-08T12:06:35.641Z,"   70"
2017-09-08T12:11:32.074Z,"   90"
2017-09-08T12:16:29.261Z,"   80"
2017-09-08T12:21:25.840Z,"  160"
2017-09-08T12:26:22.763Z,"  140"
2017-09-08T12:31:19.620Z,"  100"
2017-09-08T12:36:15.148Z,"   70"
2017-09-08T12:41:10.824Z,"   75"
2017-09-08T12:46:06.983Z,"   80"
2017-09-08T12:51:02.702Z,"   65"
2017-09-08T12:55:58.947Z,"   50"
2017-09-08T13:00:54.814Z,"   65"
2017-09-08T13:05:50.779Z,"   65"
2017-09-08T13:10:46.394Z,"   80"
2017-09-08T13:15:42.390Z,"   75"
2017-09-08T13:20:39.500Z,"   95"
2017-09-08T13:25:36.423Z,"   75"
2017-09-08T13:30:33.307Z,"  125"
2017-09-08T13:35:30.090Z,"  135"
2017-09-08T13:40:25.622Z,"  125"
2017-09-08T13:45:21.826Z,"   95"
2017-09-08T13:50:17.577Z,"   90"
2017-09-08T13:55:13.599Z,"  100"
2017-09-08T14:00:09.587Z,"  135"
2017-09-08T14:05:05.576Z,"  115"
2017-09-08T14:10:01.339Z,"  135"
2017-09-08T14:14:57.549Z,"   70"
2017-09-08T14:19:54.601Z,"   90"
2017-09-08T14:24:50.166Z,"  100"
2017-09-08T14:29:47.807Z,"   60"
2017-09-08T14:34:43.459Z,"   90"
2017-09-08T14:39:39.397Z,"   90"
2017-09-08T14:44:35.303Z,"   90"
2017-09-08T14:49:31.912Z,"   65"
2017-09-08T14:54:27.883Z,"   55"
2017-09-08T14:59:24.976Z,"   65"
2017-09-08T15:04:20.470Z,"   85"
2017-09-08T15:09:16.807Z,"   95"
2017-09-08T15:14:13.193Z,"   60"
2017-09-08T15:19:09.248Z,"   50"
2017-09-08T15:24:06.047Z,"   55"
2017-09-08T15:29:01.733Z,"   55"
2017-09-08T15:33:57.633Z,"   50"
2017-09-08T15:38:54.298Z,"   25"
2017-09-08T15:43:51.090Z,"   30"
2017-09-08T15:48:46.527Z,"   35"
2017-09-08T15:53:42.563Z,"   40"
2017-09-08T15:58:39.428Z,"   35"
2017-09-08T16:03:35.072Z,"   35"
2017-09-08T16:08:31.364Z,"   45"
2017-09-08T16:13:28.201Z,"   45"
2017-09-08T16:18:24.590Z,"   45"
2017-09-08T16:23:20.426Z,"   15"
2017-09-08T16:28:17.682Z,"   10"
2017-09-08T16:33:16.299Z,"   45"
2017-09-08T16:38:12.039Z,"   35"
2017-09-08T16:43:09.243Z,"   15"
2017-09-08T16:48:05.211Z,"   20"
2017-09-08T16:53:01.057Z,"   20"
2017-09-08T16:57:57.126Z,"   15"
2017-09-08T17:02:52.975Z,"   15"
2017-09-08T17:07:48.823Z,"   10"
2017-09-08T17:12:44.712Z,"   10"
2017-09-08T17:17:40.413Z,"   10"
2017-09-08T17:22:36.357Z,"   10"
2017-09-08T17:27:32.340Z,"   15"
2017-09-08T17:32:28.152Z,"   10"
2017-09-08T17:37:25.097Z,"    5"
2017-09-08T17:42:21.175Z,"    5"
2017-09-08T17:47:18.409Z,"    5"
2017-09-08T17:52:13.997Z,"    0"
2017-09-08T17:57:10.041Z,"    0"
2017-09-08T18:02:06.741Z,"    0"
2017-09-08T18:07:02.259Z,"    0"
2017-09-08T18:11:58.194Z,"    0"
2017-09-08T18:16:55.422Z,"    0"
2017-09-08T18:21:52.046Z,"    0"
2017-09-08T18:26:48.599Z,"    0"
2017-09-08T18:31:45.104Z,"    0"
2017-09-08T18:36:41.114Z,"    0"
2017-09-08T18:41:38.157Z,"    0"
2017-09-08T18:46:33.462Z,"    0"
2017-09-08T18:51:30.584Z,"    0"
2017-09-08T18:56:26.103Z,"    0"
2017-09-08T19:01:23.052Z,"    0"
2017-09-08T19:06:18.701Z,"    0"
2017-09-08T19:11:14.851Z,"    0"
2017-09-08T19:16:10.991Z,"    0"
2017-09-08T19:21:08.001Z,"    0"
2017-09-08T19:26:04.516Z,"    0"
2017-09-08T19:31:01.074Z,"    0"
2017-09-08T19:35:57.778Z,"    0"
2017-09-08T19:40:53.487Z,"    0"
2017-09-08T19:45:49.726Z,"    0"
2017-09-08T19:50:46.019Z,"    0"
2017-09-08T19:55:44.511Z,"    0"
2017-09-08T20:00:40.111Z,"    0"
2017-09-08T20:05:36.027Z,"    0"
2017-09-08T20:10:33.067Z,"    0"
2017-09-08T20:15:28.674Z,"    0"
2017-09-08T20:20:24.839Z,"    0"
2017-09-08T20:25:22.649Z,"    0"
2017-09-08T20:30:18.162Z,"    0"
2017-09-08T20:35:15.162Z,"    0"
2017-09-08T20:40:11.018Z,"    0"
2017-09-08T20:45:06.994Z,"    0"
2017-09-08T20:50:02.829Z,"    0"
2017-09-08T20:54:58.726Z,"    0"
2017-09-08T20:59:54.745Z,"    0"
2017-09-08T21:04:50.883Z,"    0"
2017-09-08T21:09:46.753Z,"    0"
2017-09-08T21:14:42.453Z,"    0"
2017-09-08T21:19:40.232Z,"    0"
2017-09-08T21:24:36.005Z,"    0"
2017-09-08T21:29:31.893Z,"    0"
2017-09-08T21:34:27.362Z,"    0"
2017-09-08T21:39:23.133Z,"    0"
2017-09-08T21:44:20.245Z,"    0"
2017-09-08T21:49:15.995Z,"    0"
2017-09-08T21:54:11.983Z,"    0"
2017-09-08T21:59:08.900Z,"    0"
2017-09-08T22:04:04.446Z,"    0"
2017-09-08T22:09:02.417Z,"    0"
2017-09-08T22:13:59.105Z,"    0"
2017-09-08T22:18:54.869Z,"    0"
2017-09-08T22:23:50.655Z,"    0"
2017-09-08T22:28:46.779Z,"    0"
2017-09-08T22:33:42.595Z,"    0"
2017-09-08T22:38:38.518Z,"    0"
2017-09-08T22:43:34.590Z,"    0"
2017-09-08T22:48:30.480Z,"    0"
2017-09-08T22:53:26.345Z,"    0"
2017-09-08T22:58:22.848Z,"    0"
2017-09-08T23:03:18.728Z,"    0"
2017-09-08T23:08:14.280Z,"    0"
2017-09-08T23:13:11.406Z,"    0"
2017-09-08T23:18:07.406Z,"    0"
2017-09-08T23:23:03.513Z,"    0"
2017-09-08T23:27:59.322Z,"    0"
2017-09-08T23:32:55.215Z,"    0"
2017-09-08T23:37:51.027Z,"    0"
2017-09-08T23:42:46.815Z,"    0"
2017-09-08T23:47:43.550Z,"    0"
2017-09-08T23:52:39.161Z,"    0"
2017-09-08T23:57:35.887Z,"    0"
